createdAt,value
2017-11-22T00:00:29.079Z,98.80
2017-11-22T00:02:55.328Z,98.90
2017-11-22T00:05:21.767Z,99.00
2017-11-22T00:07:48.048Z,99.10
2017-11-22T00:10:14.294Z,99.10
2017-11-22T00:12:40.566Z,99.30
2017-11-22T00:15:06.983Z,99.40
2017-11-22T00:17:33.213Z,99.40
2017-11-22T00:20:00.227Z,99.40
2017-11-22T00:22:27.221Z,99.40
2017-11-22T00:24:53.458Z,99.30
2017-11-22T00:27:19.773Z,99.70
2017-11-22T00:29:46.036Z,99.40
2017-11-22T00:32:12.285Z,99.40
2017-11-22T00:34:38.526Z,99.50
2017-11-22T00:37:04.798Z,99.50
2017-11-22T00:39:31.829Z,99.40
2017-11-22T00:41:58.828Z,99.30
2017-11-22T00:44:25.076Z,99.30
2017-11-22T00:46:51.332Z,99.40
2017-11-22T00:49:18.393Z,99.50
2017-11-22T00:51:44.711Z,99.50
2017-11-22T00:54:11.714Z,99.40
2017-11-22T00:56:37.983Z,99.40
2017-11-22T00:59:04.956Z,99.20
2017-11-22T01:01:32.392Z,99.20
2017-11-22T01:03:58.818Z,99.10
2017-11-22T01:06:25.809Z,98.80
2017-11-22T01:08:52.106Z,98.80
2017-11-22T01:11:18.372Z,98.60
2017-11-22T01:13:44.939Z,98.50
2017-11-22T01:16:11.187Z,98.40
2017-11-22T01:18:38.243Z,98.50
2017-11-22T01:21:04.505Z,98.50
2017-11-22T01:23:30.745Z,98.40
2017-11-22T01:25:57.006Z,98.50
2017-11-22T01:28:23.991Z,98.60
2017-11-22T01:30:50.277Z,98.50
2017-11-22T01:33:17.279Z,98.50
2017-11-22T01:35:43.560Z,98.50
2017-11-22T01:38:09.847Z,98.50
2017-11-22T01:40:36.138Z,98.50
2017-11-22T01:43:02.432Z,98.50
2017-11-22T01:45:29.458Z,98.70
2017-11-22T01:47:55.754Z,98.70
2017-11-22T01:50:22.075Z,98.80
2017-11-22T01:52:48.349Z,98.90
2017-11-22T01:55:14.632Z,99.00
2017-11-22T01:57:40.920Z,99.00
2017-11-22T02:00:07.575Z,99.10
2017-11-22T02:02:33.847Z,99.20
2017-11-22T02:05:00.137Z,99.00
2017-11-22T02:07:26.432Z,99.00
2017-11-22T02:09:53.416Z,98.90
2017-11-22T02:12:19.714Z,98.90
2017-11-22T02:14:46.782Z,99.00
2017-11-22T02:17:14.485Z,99.00
2017-11-22T02:19:41.052Z,99.00
2017-11-22T02:22:07.339Z,99.10
2017-11-22T02:24:33.628Z,99.10
2017-11-22T02:26:59.901Z,99.10
2017-11-22T02:29:26.194Z,99.20
2017-11-22T02:31:52.486Z,99.30
2017-11-22T02:34:19.516Z,99.90
2017-11-22T02:36:45.834Z,99.60
2017-11-22T02:39:12.121Z,99.80
2017-11-22T02:41:38.391Z,99.90
2017-11-22T02:44:04.685Z,99.90
2017-11-22T02:46:31.295Z,99.90
2017-11-22T02:48:58.325Z,99.90
2017-11-22T02:51:25.356Z,99.90
2017-11-22T02:53:51.647Z,99.90
2017-11-22T02:56:17.914Z,99.90
2017-11-22T02:58:44.191Z,99.90
2017-11-22T03:01:10.476Z,99.90
2017-11-22T03:03:36.744Z,99.90
2017-11-22T03:06:03.030Z,99.90
2017-11-22T03:08:29.318Z,99.90
2017-11-22T03:10:55.616Z,99.90
2017-11-22T03:13:21.852Z,99.90
2017-11-22T03:15:48.189Z,99.90
2017-11-22T03:18:14.453Z,99.90
2017-11-22T03:20:40.705Z,99.90
2017-11-22T03:23:07.693Z,99.90
2017-11-22T03:25:33.925Z,99.90
2017-11-22T03:28:00.181Z,99.90
2017-11-22T03:30:26.414Z,99.90
2017-11-22T03:32:52.933Z,99.90
2017-11-22T03:35:19.198Z,99.90
2017-11-22T03:37:46.218Z,99.90
2017-11-22T03:40:12.514Z,99.90
2017-11-22T03:42:38.769Z,99.90
2017-11-22T03:45:05.082Z,99.90
2017-11-22T03:47:31.370Z,99.90
2017-11-22T03:50:03.709Z,99.90
2017-11-22T03:52:36.415Z,99.90
2017-11-22T03:55:02.721Z,99.90
2017-11-22T03:57:29.721Z,99.90
2017-11-22T03:59:56.436Z,99.90
2017-11-22T04:02:24.559Z,99.90
2017-11-22T04:04:53.711Z,99.90
2017-11-22T04:07:19.979Z,99.90
2017-11-22T04:09:46.240Z,99.90
2017-11-22T04:12:12.491Z,99.90
2017-11-22T04:14:38.786Z,99.90
2017-11-22T04:17:05.801Z,99.90
2017-11-22T04:19:32.060Z,99.90
2017-11-22T04:21:59.065Z,99.90
2017-11-22T04:24:26.060Z,99.90
2017-11-22T04:26:52.970Z,99.90
2017-11-22T04:29:19.237Z,99.90
2017-11-22T04:31:45.472Z,99.90
2017-11-22T04:34:11.739Z,99.90
2017-11-22T04:36:37.991Z,99.90
2017-11-22T04:39:04.265Z,99.90
2017-11-22T04:41:30.517Z,99.90
2017-11-22T04:43:56.783Z,99.90
2017-11-22T04:46:23.834Z,99.90
2017-11-22T04:48:50.881Z,99.90
2017-11-22T04:51:17.913Z,99.90
2017-11-22T04:53:44.894Z,99.90
2017-11-22T04:56:11.917Z,99.90
2017-11-22T04:58:38.193Z,99.90
2017-11-22T05:01:04.422Z,99.90
2017-11-22T05:03:30.709Z,99.90
2017-11-22T05:05:56.979Z,99.90
2017-11-22T05:08:23.274Z,99.90
2017-11-22T05:10:49.557Z,99.90
2017-11-22T05:13:15.790Z,99.90
2017-11-22T05:15:42.881Z,99.90
2017-11-22T05:18:09.143Z,99.90
2017-11-22T05:20:35.375Z,99.90
2017-11-22T05:23:01.648Z,99.90
2017-11-22T05:25:27.900Z,99.90
2017-11-22T05:27:54.169Z,98.30
2017-11-22T05:30:20.481Z,97.30
2017-11-22T05:32:46.721Z,96.60
2017-11-22T05:35:12.987Z,95.50
2017-11-22T05:37:39.252Z,95.50
2017-11-22T05:40:05.531Z,94.00
2017-11-22T05:42:31.783Z,93.20
2017-11-22T05:44:58.037Z,93.10
2017-11-22T05:47:24.287Z,92.30
2017-11-22T05:49:51.279Z,90.60
2017-11-22T05:52:17.836Z,90.60
2017-11-22T05:54:44.098Z,90.20
2017-11-22T05:57:11.129Z,87.80
2017-11-22T05:59:38.144Z,87.60
2017-11-22T06:02:04.400Z,87.60
2017-11-22T06:04:31.407Z,90.80
2017-11-22T06:06:57.696Z,90.50
2017-11-22T06:09:24.006Z,91.30
2017-11-22T06:11:50.286Z,92.10
2017-11-22T06:14:16.576Z,93.10
2017-11-22T06:16:43.565Z,94.40
2017-11-22T06:19:09.855Z,94.40
2017-11-22T06:21:36.834Z,95.40
2017-11-22T06:24:03.103Z,95.40
2017-11-22T06:26:29.324Z,95.80
2017-11-22T06:28:55.906Z,96.20
2017-11-22T06:31:22.185Z,96.60
2017-11-22T06:33:48.425Z,97.40
2017-11-22T06:36:14.701Z,99.90
2017-11-22T06:38:40.963Z,99.90
2017-11-22T06:41:07.559Z,99.90
2017-11-22T06:43:33.859Z,99.90
2017-11-22T06:46:00.859Z,98.00
2017-11-22T06:48:27.167Z,98.00
2017-11-22T06:50:53.418Z,96.40
2017-11-22T06:53:19.669Z,95.70
2017-11-22T06:55:45.931Z,92.20
2017-11-22T06:58:12.565Z,91.70
2017-11-22T07:00:38.863Z,92.30
2017-11-22T07:03:09.064Z,93.10
2017-11-22T07:05:35.346Z,93.90
2017-11-22T07:08:01.646Z,94.60
2017-11-22T07:10:28.623Z,95.70
2017-11-22T07:12:54.861Z,95.50
2017-11-22T07:15:21.568Z,95.80
2017-11-22T07:17:49.355Z,96.50
2017-11-22T07:20:15.613Z,96.50
2017-11-22T07:22:41.913Z,96.80
2017-11-22T07:25:08.169Z,97.00
2017-11-22T07:27:34.450Z,97.30
2017-11-22T07:30:00.691Z,97.50
2017-11-22T07:32:26.916Z,97.60
2017-11-22T07:34:53.199Z,97.80
2017-11-22T07:37:25.423Z,98.00
2017-11-22T07:39:51.749Z,98.40
2017-11-22T07:42:18.731Z,98.50
2017-11-22T07:44:44.969Z,98.40
2017-11-22T07:47:11.272Z,98.50
2017-11-22T07:49:37.537Z,98.60
2017-11-22T07:52:10.775Z,98.90
2017-11-22T07:54:37.047Z,98.90
2017-11-22T07:57:04.095Z,99.00
2017-11-22T07:59:31.096Z,99.20
2017-11-22T08:01:57.351Z,99.20
2017-11-22T08:04:23.687Z,99.30
2017-11-22T08:06:49.955Z,99.30
2017-11-22T08:09:16.267Z,99.30
2017-11-22T08:11:43.369Z,99.10
2017-11-22T08:14:09.652Z,99.10
2017-11-22T08:16:35.926Z,99.20
2017-11-22T08:19:02.171Z,99.20
2017-11-22T08:21:28.447Z,99.20
2017-11-22T08:23:54.705Z,99.20
2017-11-22T08:26:20.976Z,99.30
2017-11-22T08:28:48.000Z,99.60
2017-11-22T08:31:14.246Z,99.60
2017-11-22T08:33:41.278Z,99.80
2017-11-22T08:36:08.312Z,99.90
2017-11-22T08:38:34.879Z,99.90
2017-11-22T08:41:01.896Z,99.70
2017-11-22T08:43:32.134Z,99.70
2017-11-22T08:45:59.158Z,99.90
2017-11-22T08:48:25.446Z,99.90
2017-11-22T08:50:51.716Z,99.90
2017-11-22T08:53:17.984Z,99.80
2017-11-22T08:55:50.421Z,99.50
2017-11-22T08:58:16.764Z,98.90
2017-11-22T09:00:43.789Z,98.00
2017-11-22T09:03:17.088Z,97.90
2017-11-22T09:05:48.184Z,97.30
2017-11-22T09:08:14.485Z,97.10
2017-11-22T09:10:40.736Z,97.00
2017-11-22T09:13:06.991Z,96.90
2017-11-22T09:15:33.277Z,97.00
2017-11-22T09:18:05.646Z,96.90
2017-11-22T09:20:31.939Z,96.70
2017-11-22T09:22:58.213Z,96.50
2017-11-22T09:25:24.466Z,96.20
2017-11-22T09:27:55.818Z,96.20
2017-11-22T09:30:22.107Z,96.00
2017-11-22T09:32:51.450Z,95.90
2017-11-22T09:35:18.732Z,95.70
2017-11-22T09:37:45.749Z,95.40
2017-11-22T09:40:12.021Z,95.40
2017-11-22T09:42:38.329Z,96.60
2017-11-22T09:45:05.352Z,96.40
2017-11-22T09:47:31.611Z,96.40
2017-11-22T09:49:57.893Z,95.20
2017-11-22T09:52:24.180Z,94.80
2017-11-22T09:54:50.468Z,93.40
2017-11-22T09:57:16.722Z,92.60
2017-11-22T09:59:42.981Z,92.60
2017-11-22T10:02:09.261Z,91.90
2017-11-22T10:04:36.273Z,91.70
2017-11-22T10:07:02.568Z,91.70
2017-11-22T10:09:28.842Z,92.10
2017-11-22T10:11:55.130Z,92.00
2017-11-22T10:14:21.496Z,91.90
2017-11-22T10:16:47.792Z,91.70
2017-11-22T10:19:14.114Z,91.40
2017-11-22T10:21:41.316Z,90.00
2017-11-22T10:24:07.680Z,89.50
2017-11-22T10:26:33.988Z,89.70
2017-11-22T10:29:07.084Z,89.50
2017-11-22T10:31:34.140Z,89.40
2017-11-22T10:34:00.422Z,89.30
2017-11-22T10:36:26.710Z,89.30
2017-11-22T10:38:53.057Z,87.70
2017-11-22T10:41:19.324Z,86.40
2017-11-22T10:43:45.616Z,85.70
2017-11-22T10:46:11.898Z,85.30
2017-11-22T10:48:39.256Z,83.50
2017-11-22T10:51:06.276Z,82.80
2017-11-22T10:53:32.594Z,82.80
2017-11-22T10:55:58.904Z,83.00
2017-11-22T10:58:25.180Z,83.20
2017-11-22T11:00:52.222Z,82.10
2017-11-22T11:03:18.476Z,82.00
2017-11-22T11:05:44.901Z,82.40
2017-11-22T11:08:11.258Z,81.40
2017-11-22T11:10:37.538Z,81.30
2017-11-22T11:13:04.658Z,82.10
2017-11-22T11:15:30.901Z,82.10
2017-11-22T11:17:57.180Z,80.50
2017-11-22T11:20:23.432Z,79.40
2017-11-22T11:22:49.672Z,79.00
2017-11-22T11:25:15.965Z,78.60
2017-11-22T11:27:42.195Z,77.80
2017-11-22T11:30:08.446Z,77.30
2017-11-22T11:32:34.739Z,77.10
2017-11-22T11:35:00.983Z,75.10
2017-11-22T11:37:27.286Z,74.90
2017-11-22T11:39:53.657Z,73.80
2017-11-22T11:42:19.934Z,69.70
2017-11-22T11:44:46.176Z,69.00
2017-11-22T11:47:12.501Z,67.60
2017-11-22T11:49:38.792Z,67.50
2017-11-22T11:52:05.831Z,65.00
2017-11-22T11:54:32.140Z,65.00
2017-11-22T11:56:58.405Z,65.80
2017-11-22T11:59:25.415Z,65.30
2017-11-22T12:01:51.712Z,65.30
2017-11-22T12:04:17.985Z,65.60
2017-11-22T12:06:44.246Z,66.60
2017-11-22T12:09:10.540Z,67.50
2017-11-22T12:11:36.822Z,68.70
2017-11-22T12:14:03.052Z,69.10
2017-11-22T12:16:30.033Z,70.00
2017-11-22T12:18:56.315Z,70.00
2017-11-22T12:21:26.472Z,70.00
2017-11-22T12:23:52.756Z,69.90
2017-11-22T12:26:19.003Z,69.70
2017-11-22T12:28:45.249Z,69.50
2017-11-22T12:31:11.495Z,69.80
2017-11-22T12:33:37.754Z,69.80
2017-11-22T12:36:04.015Z,69.50
2017-11-22T12:38:30.282Z,69.90
2017-11-22T12:40:56.618Z,68.90
2017-11-22T12:43:22.789Z,69.30
2017-11-22T12:45:49.071Z,68.80
2017-11-22T12:48:16.106Z,69.30
2017-11-22T12:50:42.370Z,69.30
2017-11-22T12:53:08.672Z,69.40
2017-11-22T12:55:34.941Z,68.70
2017-11-22T12:58:01.215Z,68.10
2017-11-22T13:00:27.550Z,67.60
2017-11-22T13:02:53.793Z,67.40
2017-11-22T13:05:20.849Z,67.00
2017-11-22T13:07:47.127Z,66.90
2017-11-22T13:10:19.346Z,66.90
2017-11-22T13:12:45.644Z,66.30
2017-11-22T13:15:11.921Z,65.90
2017-11-22T13:17:44.977Z,66.00
2017-11-22T13:20:12.002Z,66.30
2017-11-22T13:22:38.271Z,66.30
2017-11-22T13:25:05.294Z,66.50
2017-11-22T13:27:32.342Z,66.70
2017-11-22T13:29:58.621Z,66.80
2017-11-22T13:32:25.887Z,67.10
2017-11-22T13:34:52.154Z,66.90
2017-11-22T13:37:18.439Z,66.40
2017-11-22T13:39:44.861Z,66.20
2017-11-22T13:42:11.221Z,65.80
2017-11-22T13:44:38.246Z,65.60
2017-11-22T13:47:04.536Z,65.60
2017-11-22T13:49:30.862Z,65.80
2017-11-22T13:51:57.142Z,65.30
2017-11-22T13:54:23.446Z,65.30
2017-11-22T13:56:49.740Z,65.60
2017-11-22T13:59:16.382Z,65.30
2017-11-22T14:01:42.741Z,66.70
2017-11-22T14:04:09.029Z,69.00
2017-11-22T14:06:35.347Z,70.70
2017-11-22T14:09:01.658Z,71.40
2017-11-22T14:11:28.844Z,73.10
2017-11-22T14:13:55.154Z,73.10
2017-11-22T14:16:22.173Z,75.30
2017-11-22T14:18:48.530Z,75.30
2017-11-22T14:21:14.847Z,76.50
2017-11-22T14:23:41.914Z,78.90
2017-11-22T14:26:08.260Z,78.90
2017-11-22T14:28:34.535Z,79.30
2017-11-22T14:31:00.840Z,80.20
2017-11-22T14:33:27.125Z,80.70
2017-11-22T14:35:53.470Z,80.60
2017-11-22T14:38:19.795Z,81.10
2017-11-22T14:40:46.130Z,81.90
2017-11-22T14:43:12.478Z,82.70
2017-11-22T14:45:38.786Z,83.50
2017-11-22T14:48:05.123Z,84.40
2017-11-22T14:50:31.533Z,85.60
2017-11-22T14:52:57.852Z,86.60
2017-11-22T14:55:24.182Z,87.60
2017-11-22T14:57:50.503Z,88.00
2017-11-22T15:00:17.566Z,88.90
2017-11-22T15:02:43.877Z,88.90
2017-11-22T15:05:11.072Z,90.00
2017-11-22T15:07:37.950Z,90.00
2017-11-22T15:10:05.758Z,90.60
2017-11-22T15:12:32.431Z,90.80
2017-11-22T15:14:59.727Z,90.70
2017-11-22T15:17:26.265Z,90.80
2017-11-22T15:19:52.600Z,91.10
2017-11-22T15:22:18.939Z,91.20
2017-11-22T15:24:45.953Z,91.90
2017-11-22T15:27:12.990Z,92.10
2017-11-22T15:29:40.007Z,92.40
2017-11-22T15:32:06.322Z,92.30
2017-11-22T15:34:32.623Z,92.30
2017-11-22T15:36:58.891Z,92.40
2017-11-22T15:39:25.310Z,92.50
2017-11-22T15:41:51.591Z,92.80
2017-11-22T15:44:17.915Z,93.00
2017-11-22T15:46:44.194Z,93.30
2017-11-22T15:49:10.480Z,93.60
2017-11-22T15:51:36.806Z,93.60
2017-11-22T15:54:03.129Z,93.50
2017-11-22T15:56:30.192Z,93.70
2017-11-22T15:58:56.502Z,93.70
2017-11-22T16:01:23.499Z,93.80
2017-11-22T16:03:49.930Z,93.80
2017-11-22T16:06:16.189Z,94.30
2017-11-22T16:08:42.432Z,94.00
2017-11-22T16:11:08.772Z,93.90
2017-11-22T16:13:35.066Z,94.20
2017-11-22T16:16:01.424Z,94.30
2017-11-22T16:18:27.709Z,94.40
2017-11-22T16:20:54.018Z,94.60
2017-11-22T16:23:20.751Z,94.80
2017-11-22T16:25:47.067Z,95.00
2017-11-22T16:28:13.369Z,95.00
2017-11-22T16:30:40.411Z,95.20
2017-11-22T16:33:06.737Z,95.20
2017-11-22T16:35:33.797Z,95.30
2017-11-22T16:38:01.004Z,95.30
2017-11-22T16:40:28.172Z,95.30
2017-11-22T16:42:54.461Z,95.30
2017-11-22T16:45:20.696Z,95.40
2017-11-22T16:47:47.014Z,95.50
2017-11-22T16:50:13.287Z,95.60
2017-11-22T16:52:39.595Z,95.80
2017-11-22T16:55:05.902Z,95.80
2017-11-22T16:57:32.214Z,96.10
2017-11-22T16:59:58.536Z,96.20
2017-11-22T17:02:24.810Z,96.20
2017-11-22T17:04:51.095Z,96.10
2017-11-22T17:07:17.397Z,96.00
2017-11-22T17:09:44.413Z,96.00
2017-11-22T17:12:10.761Z,96.10
2017-11-22T17:14:37.780Z,96.70
2017-11-22T17:17:04.054Z,96.70
2017-11-22T17:19:30.347Z,96.90
2017-11-22T17:21:57.098Z,96.50
2017-11-22T17:24:24.201Z,96.30
2017-11-22T17:26:50.535Z,96.30
2017-11-22T17:29:16.835Z,96.30
2017-11-22T17:31:43.165Z,96.10
2017-11-22T17:34:09.475Z,95.90
2017-11-22T17:36:36.554Z,96.00
2017-11-22T17:39:02.960Z,96.00
2017-11-22T17:41:29.257Z,96.10
2017-11-22T17:43:55.590Z,96.10
2017-11-22T17:46:21.847Z,96.20
2017-11-22T17:48:48.189Z,96.30
2017-11-22T17:51:14.530Z,96.30
2017-11-22T17:53:40.829Z,96.40
2017-11-22T17:56:07.138Z,96.50
2017-11-22T17:58:34.222Z,96.80
2017-11-22T18:01:00.553Z,96.70
2017-11-22T18:03:26.898Z,96.90
2017-11-22T18:05:53.230Z,96.90
2017-11-22T18:08:19.542Z,97.00
2017-11-22T18:10:45.908Z,97.10
2017-11-22T18:13:12.303Z,97.20
2017-11-22T18:15:38.638Z,97.30
2017-11-22T18:18:05.011Z,97.30
2017-11-22T18:20:32.108Z,97.60
2017-11-22T18:22:58.421Z,97.30
2017-11-22T18:25:24.743Z,97.30
2017-11-22T18:27:51.810Z,97.40
2017-11-22T18:30:18.137Z,97.40
2017-11-22T18:32:44.432Z,97.40
2017-11-22T18:35:11.539Z,97.50
2017-11-22T18:37:37.921Z,97.50
2017-11-22T18:40:05.092Z,97.70
2017-11-22T18:42:31.462Z,97.60
2017-11-22T18:44:57.907Z,97.70
2017-11-22T18:47:25.002Z,97.70
2017-11-22T18:49:51.356Z,97.70
2017-11-22T18:52:17.665Z,97.70
2017-11-22T18:54:43.999Z,97.70
2017-11-22T18:57:10.377Z,97.70
2017-11-22T18:59:43.769Z,97.60
2017-11-22T19:02:10.833Z,97.60
2017-11-22T19:04:37.885Z,97.60
2017-11-22T19:07:04.320Z,97.60
2017-11-22T19:09:30.671Z,97.70
2017-11-22T19:11:57.073Z,97.80
2017-11-22T19:14:23.385Z,97.80
2017-11-22T19:16:50.478Z,98.10
2017-11-22T19:19:16.830Z,98.00
2017-11-22T19:21:43.214Z,98.10
2017-11-22T19:24:09.533Z,98.00
2017-11-22T19:26:35.850Z,98.00
2017-11-22T19:29:03.000Z,98.00
2017-11-22T19:31:29.346Z,98.00
2017-11-22T19:33:57.297Z,98.00
2017-11-22T19:36:24.352Z,98.00
2017-11-22T19:38:51.548Z,98.00
2017-11-22T19:41:17.945Z,98.00
2017-11-22T19:43:44.345Z,97.90
2017-11-22T19:46:10.690Z,97.90
2017-11-22T19:48:37.818Z,98.00
2017-11-22T19:51:04.292Z,98.00
2017-11-22T19:53:30.624Z,98.10
2017-11-22T19:55:56.986Z,98.40
2017-11-22T19:58:23.355Z,98.10
2017-11-22T20:00:49.784Z,98.10
2017-11-22T20:03:16.933Z,98.20
2017-11-22T20:05:43.976Z,98.20
2017-11-22T20:08:23.347Z,98.20
2017-11-22T20:10:49.710Z,98.20
2017-11-22T20:13:16.136Z,98.20
2017-11-22T20:15:42.489Z,98.30
2017-11-22T20:18:09.566Z,98.40
2017-11-22T20:20:35.888Z,98.40
2017-11-22T20:23:02.966Z,98.40
2017-11-22T20:25:36.142Z,98.30
2017-11-22T20:28:02.485Z,98.30
2017-11-22T20:30:28.855Z,98.40
2017-11-22T20:32:55.222Z,98.40
2017-11-22T20:35:21.600Z,98.20
2017-11-22T20:37:47.928Z,98.40
2017-11-22T20:40:14.262Z,98.40
2017-11-22T20:42:40.589Z,98.30
2017-11-22T20:45:07.696Z,98.30
2017-11-22T20:47:34.080Z,98.30
2017-11-22T20:50:02.558Z,98.20
2017-11-22T20:52:28.912Z,98.20
2017-11-22T20:54:55.985Z,98.20
2017-11-22T20:57:22.337Z,98.20
2017-11-22T20:59:48.658Z,98.20
2017-11-22T21:02:14.987Z,98.10
2017-11-22T21:04:41.293Z,98.10
2017-11-22T21:07:07.654Z,98.10
2017-11-22T21:09:34.022Z,98.10
2017-11-22T21:12:01.088Z,98.10
2017-11-22T21:14:27.425Z,98.10
2017-11-22T21:16:53.708Z,98.20
2017-11-22T21:19:19.999Z,98.20
2017-11-22T21:21:46.548Z,98.30
2017-11-22T21:24:13.077Z,98.30
2017-11-22T21:26:39.373Z,98.20
2017-11-22T21:29:05.663Z,98.10
2017-11-22T21:31:31.943Z,98.10
2017-11-22T21:33:58.265Z,98.10
2017-11-22T21:36:24.587Z,98.00
2017-11-22T21:38:50.942Z,98.00
2017-11-22T21:41:17.244Z,98.00
2017-11-22T21:43:43.522Z,98.00
2017-11-22T21:46:09.814Z,98.00
2017-11-22T21:48:36.094Z,98.00
2017-11-22T21:51:02.352Z,98.00
2017-11-22T21:53:28.599Z,98.00
2017-11-22T21:55:54.865Z,97.90
2017-11-22T21:58:21.151Z,97.90
2017-11-22T22:00:47.403Z,97.80
2017-11-22T22:03:13.711Z,97.90
2017-11-22T22:05:39.982Z,98.00
2017-11-22T22:08:06.246Z,98.00
2017-11-22T22:10:32.519Z,98.00
2017-11-22T22:12:58.776Z,97.90
2017-11-22T22:15:25.028Z,97.80
2017-11-22T22:17:51.277Z,97.80
2017-11-22T22:20:17.537Z,97.70
2017-11-22T22:22:43.870Z,97.70
2017-11-22T22:25:10.113Z,97.80
2017-11-22T22:27:37.129Z,98.10
2017-11-22T22:30:04.161Z,98.10
2017-11-22T22:32:30.407Z,98.10
2017-11-22T22:34:56.672Z,98.00
2017-11-22T22:37:23.674Z,97.90
2017-11-22T22:39:50.032Z,97.80
2017-11-22T22:42:16.342Z,97.80
2017-11-22T22:44:42.612Z,97.80
2017-11-22T22:47:08.867Z,97.80
2017-11-22T22:49:35.123Z,97.80
2017-11-22T22:52:01.383Z,97.70
2017-11-22T22:54:28.396Z,97.70
2017-11-22T22:56:54.655Z,97.70
2017-11-22T22:59:21.705Z,97.80
2017-11-22T23:01:48.712Z,97.90
2017-11-22T23:04:14.968Z,97.80
2017-11-22T23:06:41.973Z,98.10
2017-11-22T23:09:08.313Z,98.00
2017-11-22T23:11:34.579Z,98.10
2017-11-22T23:14:01.937Z,97.90
2017-11-22T23:16:28.161Z,97.90
2017-11-22T23:18:54.413Z,97.70
2017-11-22T23:21:20.759Z,97.60
2017-11-22T23:23:47.038Z,97.60
2017-11-22T23:26:14.050Z,97.70
2017-11-22T23:28:40.300Z,97.70
2017-11-22T23:31:06.576Z,97.90
2017-11-22T23:33:32.840Z,97.90
2017-11-22T23:35:59.094Z,98.10
2017-11-22T23:38:26.149Z,98.10
2017-11-22T23:40:52.477Z,98.10
2017-11-22T23:43:19.624Z,98.10
2017-11-22T23:45:45.910Z,98.10
2017-11-22T23:48:12.971Z,98.00
2017-11-22T23:50:39.226Z,98.00
2017-11-22T23:53:05.466Z,98.00
2017-11-22T23:55:31.733Z,98.00
2017-11-22T23:57:57.969Z,98.00
